sensor_id;sensor_type;location;lat;lon;timestamp;P1;durP1;ratioP1;P2;durP2;ratioP2
45420;SDS011;55462;47.042;8.292;2023-08-21T00:01:51;8.15;;;7.43;;
45420;SDS011;55462;47.042;8.292;2023-08-21T00:04:17;8.30;;;7.28;;
45420;SDS011;55462;47.042;8.292;2023-08-21T00:06:42;11.38;;;7.13;;
45420;SDS011;55462;47.042;8.292;2023-08-21T00:09:07;8.02;;;7.32;;
45420;SDS011;55462;47.042;8.292;2023-08-21T00:11:33;10.25;;;7.15;;
45420;SDS011;55462;47.042;8.292;2023-08-21T00:13:58;8.07;;;7.32;;
45420;SDS011;55462;47.042;8.292;2023-08-21T00:16:23;8.48;;;7.57;;
45420;SDS011;55462;47.042;8.292;2023-08-21T00:18:49;9.68;;;7.93;;
45420;SDS011;55462;47.042;8.292;2023-08-21T00:21:14;8.80;;;7.63;;
45420;SDS011;55462;47.042;8.292;2023-08-21T00:23:39;8.32;;;7.38;;
45420;SDS011;55462;47.042;8.292;2023-08-21T00:26:05;8.25;;;7.45;;
45420;SDS011;55462;47.042;8.292;2023-08-21T00:28:30;8.50;;;7.60;;
45420;SDS011;55462;47.042;8.292;2023-08-21T00:31:04;8.63;;;7.57;;
45420;SDS011;55462;47.042;8.292;2023-08-21T00:33:30;8.93;;;6.90;;
45420;SDS011;55462;47.042;8.292;2023-08-21T00:35:56;8.80;;;7.50;;
45420;SDS011;55462;47.042;8.292;2023-08-21T00:38:21;9.05;;;7.30;;
45420;SDS011;55462;47.042;8.292;2023-08-21T00:40:48;8.93;;;7.97;;
45420;SDS011;55462;47.042;8.292;2023-08-21T00:43:13;7.93;;;7.15;;
45420;SDS011;55462;47.042;8.292;2023-08-21T00:45:39;8.52;;;7.72;;
45420;SDS011;55462;47.042;8.292;2023-08-21T00:48:06;7.93;;;7.32;;
45420;SDS011;55462;47.042;8.292;2023-08-21T00:50:32;9.88;;;7.93;;
45420;SDS011;55462;47.042;8.292;2023-08-21T00:52:57;7.97;;;7.35;;
45420;SDS011;55462;47.042;8.292;2023-08-21T00:55:22;8.35;;;7.65;;
45420;SDS011;55462;47.042;8.292;2023-08-21T00:57:48;8.60;;;7.65;;
45420;SDS011;55462;47.042;8.292;2023-08-21T01:00:14;9.35;;;7.63;;
45420;SDS011;55462;47.042;8.292;2023-08-21T01:02:39;10.65;;;7.93;;
45420;SDS011;55462;47.042;8.292;2023-08-21T01:05:05;9.27;;;8.30;;
45420;SDS011;55462;47.042;8.292;2023-08-21T01:07:31;8.57;;;7.88;;
45420;SDS011;55462;47.042;8.292;2023-08-21T01:10:20;9.07;;;7.80;;
45420;SDS011;55462;47.042;8.292;2023-08-21T01:12:58;9.15;;;7.88;;
45420;SDS011;55462;47.042;8.292;2023-08-21T01:15:28;8.35;;;7.28;;
45420;SDS011;55462;47.042;8.292;2023-08-21T01:17:53;8.60;;;7.45;;
45420;SDS011;55462;47.042;8.292;2023-08-21T01:20:19;8.65;;;7.82;;
45420;SDS011;55462;47.042;8.292;2023-08-21T01:22:45;8.60;;;7.80;;
45420;SDS011;55462;47.042;8.292;2023-08-21T01:25:11;9.93;;;8.02;;
45420;SDS011;55462;47.042;8.292;2023-08-21T01:27:36;9.20;;;8.20;;
45420;SDS011;55462;47.042;8.292;2023-08-21T01:30:03;13.50;;;8.00;;
45420;SDS011;55462;47.042;8.292;2023-08-21T01:32:43;9.45;;;8.07;;
45420;SDS011;55462;47.042;8.292;2023-08-21T01:35:13;9.55;;;8.15;;
45420;SDS011;55462;47.042;8.292;2023-08-21T01:37:39;8.77;;;8.00;;
45420;SDS011;55462;47.042;8.292;2023-08-21T01:40:05;10.60;;;8.32;;
45420;SDS011;55462;47.042;8.292;2023-08-21T01:42:30;10.98;;;8.15;;
45420;SDS011;55462;47.042;8.292;2023-08-21T01:44:56;9.55;;;7.78;;
45420;SDS011;55462;47.042;8.292;2023-08-21T01:47:21;12.30;;;7.57;;
45420;SDS011;55462;47.042;8.292;2023-08-21T01:49:46;8.57;;;7.78;;
45420;SDS011;55462;47.042;8.292;2023-08-21T01:52:12;8.32;;;7.53;;
45420;SDS011;55462;47.042;8.292;2023-08-21T01:54:37;8.75;;;7.82;;
45420;SDS011;55462;47.042;8.292;2023-08-21T01:57:02;10.30;;;7.85;;
45420;SDS011;55462;47.042;8.292;2023-08-21T01:59:28;9.07;;;7.60;;
45420;SDS011;55462;47.042;8.292;2023-08-21T02:01:53;8.27;;;7.43;;
45420;SDS011;55462;47.042;8.292;2023-08-21T02:04:19;10.93;;;7.82;;
45420;SDS011;55462;47.042;8.292;2023-08-21T02:06:44;9.10;;;7.68;;
45420;SDS011;55462;47.042;8.292;2023-08-21T02:09:10;8.55;;;7.47;;
45420;SDS011;55462;47.042;8.292;2023-08-21T02:11:35;8.88;;;7.72;;
45420;SDS011;55462;47.042;8.292;2023-08-21T02:14:01;7.85;;;7.15;;
45420;SDS011;55462;47.042;8.292;2023-08-21T02:16:26;8.63;;;7.60;;
45420;SDS011;55462;47.042;8.292;2023-08-21T02:18:51;11.52;;;7.43;;
45420;SDS011;55462;47.042;8.292;2023-08-21T02:21:17;10.55;;;7.75;;
45420;SDS011;55462;47.042;8.292;2023-08-21T02:23:42;9.15;;;8.15;;
45420;SDS011;55462;47.042;8.292;2023-08-21T02:26:07;9.15;;;8.18;;
45420;SDS011;55462;47.042;8.292;2023-08-21T02:28:33;8.65;;;7.95;;
45420;SDS011;55462;47.042;8.292;2023-08-21T02:30:58;8.63;;;8.00;;
45420;SDS011;55462;47.042;8.292;2023-08-21T02:33:23;11.40;;;7.78;;
45420;SDS011;55462;47.042;8.292;2023-08-21T02:35:49;9.77;;;7.63;;
45420;SDS011;55462;47.042;8.292;2023-08-21T02:38:14;8.40;;;7.53;;
45420;SDS011;55462;47.042;8.292;2023-08-21T02:40:39;8.15;;;7.35;;
45420;SDS011;55462;47.042;8.292;2023-08-21T02:43:04;8.75;;;7.95;;
45420;SDS011;55462;47.042;8.292;2023-08-21T02:45:30;8.45;;;6.93;;
45420;SDS011;55462;47.042;8.292;2023-08-21T02:47:55;8.55;;;7.78;;
45420;SDS011;55462;47.042;8.292;2023-08-21T02:50:21;10.30;;;6.97;;
45420;SDS011;55462;47.042;8.292;2023-08-21T02:52:46;9.07;;;7.72;;
45420;SDS011;55462;47.042;8.292;2023-08-21T02:55:12;10.93;;;7.68;;
45420;SDS011;55462;47.042;8.292;2023-08-21T02:57:37;8.50;;;7.70;;
45420;SDS011;55462;47.042;8.292;2023-08-21T03:00:02;8.60;;;7.78;;
45420;SDS011;55462;47.042;8.292;2023-08-21T03:02:29;8.50;;;7.72;;
45420;SDS011;55462;47.042;8.292;2023-08-21T03:04:54;9.00;;;8.07;;
45420;SDS011;55462;47.042;8.292;2023-08-21T03:07:19;9.45;;;8.23;;
45420;SDS011;55462;47.042;8.292;2023-08-21T03:09:45;7.55;;;6.88;;
45420;SDS011;55462;47.042;8.292;2023-08-21T03:12:12;11.40;;;8.13;;
45420;SDS011;55462;47.042;8.292;2023-08-21T03:14:37;8.52;;;7.82;;
45420;SDS011;55462;47.042;8.292;2023-08-21T03:17:03;8.85;;;7.15;;
45420;SDS011;55462;47.042;8.292;2023-08-21T03:19:28;8.85;;;7.97;;
45420;SDS011;55462;47.042;8.292;2023-08-21T03:21:53;10.70;;;7.63;;
45420;SDS011;55462;47.042;8.292;2023-08-21T03:24:18;8.68;;;7.78;;
45420;SDS011;55462;47.042;8.292;2023-08-21T03:26:44;10.35;;;8.52;;
45420;SDS011;55462;47.042;8.292;2023-08-21T03:29:09;9.75;;;8.82;;
45420;SDS011;55462;47.042;8.292;2023-08-21T03:31:35;11.27;;;8.93;;
45420;SDS011;55462;47.042;8.292;2023-08-21T03:34:00;13.55;;;7.88;;
45420;SDS011;55462;47.042;8.292;2023-08-21T03:36:25;10.95;;;8.40;;
45420;SDS011;55462;47.042;8.292;2023-08-21T03:38:57;12.02;;;8.00;;
45420;SDS011;55462;47.042;8.292;2023-08-21T03:41:23;11.05;;;8.60;;
45420;SDS011;55462;47.042;8.292;2023-08-21T03:43:48;8.32;;;7.55;;
45420;SDS011;55462;47.042;8.292;2023-08-21T03:46:13;11.18;;;7.93;;
45420;SDS011;55462;47.042;8.292;2023-08-21T03:48:38;9.00;;;8.02;;
45420;SDS011;55462;47.042;8.292;2023-08-21T03:51:04;8.85;;;7.75;;
45420;SDS011;55462;47.042;8.292;2023-08-21T03:53:29;12.07;;;7.22;;
45420;SDS011;55462;47.042;8.292;2023-08-21T03:55:54;8.48;;;7.78;;
45420;SDS011;55462;47.042;8.292;2023-08-21T03:58:20;9.52;;;7.28;;
45420;SDS011;55462;47.042;8.292;2023-08-21T04:00:45;8.88;;;7.75;;
45420;SDS011;55462;47.042;8.292;2023-08-21T04:03:11;9.75;;;7.20;;
45420;SDS011;55462;47.042;8.292;2023-08-21T04:05:36;10.23;;;7.70;;
45420;SDS011;55462;47.042;8.292;2023-08-21T04:08:02;8.52;;;7.68;;
45420;SDS011;55462;47.042;8.292;2023-08-21T04:10:27;8.70;;;7.90;;
45420;SDS011;55462;47.042;8.292;2023-08-21T04:12:53;9.20;;;8.15;;
45420;SDS011;55462;47.042;8.292;2023-08-21T04:15:18;8.52;;;7.65;;
45420;SDS011;55462;47.042;8.292;2023-08-21T04:17:43;8.70;;;7.85;;
45420;SDS011;55462;47.042;8.292;2023-08-21T04:20:09;9.25;;;8.15;;
45420;SDS011;55462;47.042;8.292;2023-08-21T04:22:34;11.90;;;8.32;;
45420;SDS011;55462;47.042;8.292;2023-08-21T04:25:00;8.75;;;7.95;;
45420;SDS011;55462;47.042;8.292;2023-08-21T04:27:25;9.20;;;8.02;;
45420;SDS011;55462;47.042;8.292;2023-08-21T04:29:50;9.68;;;8.88;;
45420;SDS011;55462;47.042;8.292;2023-08-21T04:32:16;10.48;;;8.10;;
45420;SDS011;55462;47.042;8.292;2023-08-21T04:34:41;9.35;;;8.40;;
45420;SDS011;55462;47.042;8.292;2023-08-21T04:37:07;11.73;;;8.50;;
45420;SDS011;55462;47.042;8.292;2023-08-21T04:39:32;9.40;;;8.43;;
45420;SDS011;55462;47.042;8.292;2023-08-21T04:41:57;8.90;;;7.43;;
45420;SDS011;55462;47.042;8.292;2023-08-21T04:44:23;9.52;;;7.47;;
45420;SDS011;55462;47.042;8.292;2023-08-21T04:46:48;8.65;;;7.80;;
45420;SDS011;55462;47.042;8.292;2023-08-21T04:49:15;9.93;;;8.38;;
45420;SDS011;55462;47.042;8.292;2023-08-21T04:51:40;9.90;;;7.70;;
45420;SDS011;55462;47.042;8.292;2023-08-21T04:54:06;8.30;;;7.38;;
45420;SDS011;55462;47.042;8.292;2023-08-21T04:56:31;9.27;;;7.85;;
45420;SDS011;55462;47.042;8.292;2023-08-21T04:58:56;10.25;;;8.43;;
45420;SDS011;55462;47.042;8.292;2023-08-21T05:01:22;9.07;;;8.32;;
45420;SDS011;55462;47.042;8.292;2023-08-21T05:03:47;9.18;;;8.30;;
45420;SDS011;55462;47.042;8.292;2023-08-21T05:06:12;8.80;;;8.05;;
45420;SDS011;55462;47.042;8.292;2023-08-21T05:08:38;10.05;;;8.27;;
45420;SDS011;55462;47.042;8.292;2023-08-21T05:11:03;10.77;;;7.63;;
45420;SDS011;55462;47.042;8.292;2023-08-21T05:13:28;7.60;;;7.00;;
45420;SDS011;55462;47.042;8.292;2023-08-21T05:15:54;8.18;;;7.28;;
45420;SDS011;55462;47.042;8.292;2023-08-21T05:18:20;8.30;;;7.15;;
45420;SDS011;55462;47.042;8.292;2023-08-21T05:20:47;9.13;;;7.72;;
45420;SDS011;55462;47.042;8.292;2023-08-21T05:23:13;9.85;;;7.88;;
45420;SDS011;55462;47.042;8.292;2023-08-21T05:25:38;7.28;;;6.78;;
45420;SDS011;55462;47.042;8.292;2023-08-21T05:28:04;8.63;;;7.93;;
45420;SDS011;55462;47.042;8.292;2023-08-21T05:30:29;9.40;;;7.53;;
45420;SDS011;55462;47.042;8.292;2023-08-21T05:32:55;8.98;;;7.38;;
45420;SDS011;55462;47.042;8.292;2023-08-21T05:35:20;7.75;;;7.05;;
45420;SDS011;55462;47.042;8.292;2023-08-21T05:37:45;9.75;;;7.57;;
45420;SDS011;55462;47.042;8.292;2023-08-21T05:40:11;8.27;;;7.47;;
45420;SDS011;55462;47.042;8.292;2023-08-21T05:42:40;9.05;;;8.13;;
45420;SDS011;55462;47.042;8.292;2023-08-21T05:45:06;10.65;;;7.95;;
45420;SDS011;55462;47.042;8.292;2023-08-21T05:47:31;9.07;;;8.18;;
45420;SDS011;55462;47.042;8.292;2023-08-21T05:49:56;8.75;;;8.05;;
45420;SDS011;55462;47.042;8.292;2023-08-21T05:52:22;8.32;;;7.65;;
45420;SDS011;55462;47.042;8.292;2023-08-21T05:54:47;7.47;;;6.82;;
45420;SDS011;55462;47.042;8.292;2023-08-21T05:57:13;7.72;;;7.13;;
45420;SDS011;55462;47.042;8.292;2023-08-21T05:59:42;7.32;;;6.72;;
45420;SDS011;55462;47.042;8.292;2023-08-21T06:02:08;9.10;;;6.90;;
45420;SDS011;55462;47.042;8.292;2023-08-21T06:04:34;10.43;;;8.23;;
45420;SDS011;55462;47.042;8.292;2023-08-21T06:06:59;8.80;;;7.90;;
45420;SDS011;55462;47.042;8.292;2023-08-21T06:09:24;8.32;;;7.55;;
45420;SDS011;55462;47.042;8.292;2023-08-21T06:11:50;9.63;;;6.78;;
45420;SDS011;55462;47.042;8.292;2023-08-21T06:14:15;9.65;;;7.25;;
45420;SDS011;55462;47.042;8.292;2023-08-21T06:16:40;10.38;;;8.88;;
45420;SDS011;55462;47.042;8.292;2023-08-21T06:19:06;9.75;;;7.60;;
45420;SDS011;55462;47.042;8.292;2023-08-21T06:21:31;9.85;;;8.27;;
45420;SDS011;55462;47.042;8.292;2023-08-21T06:23:56;8.77;;;7.78;;
45420;SDS011;55462;47.042;8.292;2023-08-21T06:26:22;8.73;;;7.45;;
45420;SDS011;55462;47.042;8.292;2023-08-21T06:28:47;8.48;;;7.75;;
45420;SDS011;55462;47.042;8.292;2023-08-21T06:31:12;10.82;;;7.93;;
45420;SDS011;55462;47.042;8.292;2023-08-21T06:33:37;13.52;;;8.05;;
45420;SDS011;55462;47.042;8.292;2023-08-21T06:36:03;11.32;;;7.22;;
45420;SDS011;55462;47.042;8.292;2023-08-21T06:38:28;9.35;;;7.72;;
45420;SDS011;55462;47.042;8.292;2023-08-21T06:40:53;11.38;;;8.43;;
45420;SDS011;55462;47.042;8.292;2023-08-21T06:43:19;12.40;;;7.43;;
45420;SDS011;55462;47.042;8.292;2023-08-21T06:45:44;8.60;;;7.13;;
45420;SDS011;55462;47.042;8.292;2023-08-21T06:48:09;12.15;;;7.75;;
45420;SDS011;55462;47.042;8.292;2023-08-21T06:50:36;9.82;;;8.50;;
45420;SDS011;55462;47.042;8.292;2023-08-21T06:53:02;12.10;;;9.40;;
45420;SDS011;55462;47.042;8.292;2023-08-21T06:55:27;11.18;;;8.27;;
45420;SDS011;55462;47.042;8.292;2023-08-21T06:57:52;11.10;;;8.50;;
45420;SDS011;55462;47.042;8.292;2023-08-21T07:00:18;10.43;;;7.75;;
45420;SDS011;55462;47.042;8.292;2023-08-21T07:02:43;9.00;;;7.78;;
45420;SDS011;55462;47.042;8.292;2023-08-21T07:05:08;8.75;;;7.85;;
45420;SDS011;55462;47.042;8.292;2023-08-21T07:07:34;10.90;;;7.75;;
45420;SDS011;55462;47.042;8.292;2023-08-21T07:09:59;8.90;;;8.00;;
45420;SDS011;55462;47.042;8.292;2023-08-21T07:12:24;8.90;;;8.07;;
45420;SDS011;55462;47.042;8.292;2023-08-21T07:14:50;10.70;;;8.43;;
45420;SDS011;55462;47.042;8.292;2023-08-21T07:17:15;11.20;;;8.57;;
45420;SDS011;55462;47.042;8.292;2023-08-21T07:19:40;9.45;;;8.48;;
45420;SDS011;55462;47.042;8.292;2023-08-21T07:22:05;9.20;;;8.35;;
45420;SDS011;55462;47.042;8.292;2023-08-21T07:24:31;8.88;;;7.97;;
45420;SDS011;55462;47.042;8.292;2023-08-21T07:26:56;12.48;;;8.27;;
45420;SDS011;55462;47.042;8.292;2023-08-21T07:29:21;9.30;;;8.20;;
45420;SDS011;55462;47.042;8.292;2023-08-21T07:31:47;9.68;;;8.00;;
45420;SDS011;55462;47.042;8.292;2023-08-21T07:34:12;9.60;;;8.60;;
45420;SDS011;55462;47.042;8.292;2023-08-21T07:36:37;11.10;;;8.70;;
45420;SDS011;55462;47.042;8.292;2023-08-21T07:39:03;9.48;;;8.23;;
45420;SDS011;55462;47.042;8.292;2023-08-21T07:41:28;8.10;;;7.38;;
45420;SDS011;55462;47.042;8.292;2023-08-21T07:43:54;8.75;;;7.88;;
45420;SDS011;55462;47.042;8.292;2023-08-21T07:46:19;14.25;;;9.20;;
45420;SDS011;55462;47.042;8.292;2023-08-21T07:48:45;10.07;;;8.13;;
45420;SDS011;55462;47.042;8.292;2023-08-21T07:51:10;12.18;;;8.88;;
45420;SDS011;55462;47.042;8.292;2023-08-21T07:53:35;12.88;;;9.35;;
45420;SDS011;55462;47.042;8.292;2023-08-21T07:56:02;9.65;;;8.65;;
45420;SDS011;55462;47.042;8.292;2023-08-21T07:58:28;9.90;;;8.73;;
45420;SDS011;55462;47.042;8.292;2023-08-21T08:00:54;11.35;;;8.63;;
45420;SDS011;55462;47.042;8.292;2023-08-21T08:03:20;11.25;;;8.88;;
45420;SDS011;55462;47.042;8.292;2023-08-21T08:05:45;11.23;;;8.13;;
45420;SDS011;55462;47.042;8.292;2023-08-21T08:08:10;10.73;;;7.90;;
45420;SDS011;55462;47.042;8.292;2023-08-21T08:10:39;8.63;;;7.82;;
45420;SDS011;55462;47.042;8.292;2023-08-21T08:13:05;8.35;;;7.00;;
45420;SDS011;55462;47.042;8.292;2023-08-21T08:15:31;11.73;;;8.30;;
45420;SDS011;55462;47.042;8.292;2023-08-21T08:17:59;9.10;;;8.25;;
45420;SDS011;55462;47.042;8.292;2023-08-21T08:20:24;10.45;;;8.18;;
45420;SDS011;55462;47.042;8.292;2023-08-21T08:22:49;11.60;;;7.88;;
45420;SDS011;55462;47.042;8.292;2023-08-21T08:25:14;9.20;;;8.27;;
45420;SDS011;55462;47.042;8.292;2023-08-21T08:27:40;15.80;;;8.57;;
45420;SDS011;55462;47.042;8.292;2023-08-21T08:30:06;8.88;;;7.75;;
45420;SDS011;55462;47.042;8.292;2023-08-21T08:32:31;17.33;;;8.50;;
45420;SDS011;55462;47.042;8.292;2023-08-21T08:34:57;11.77;;;8.30;;
45420;SDS011;55462;47.042;8.292;2023-08-21T08:37:22;9.85;;;8.93;;
45420;SDS011;55462;47.042;8.292;2023-08-21T08:39:48;12.50;;;8.85;;
45420;SDS011;55462;47.042;8.292;2023-08-21T08:42:13;8.75;;;7.88;;
45420;SDS011;55462;47.042;8.292;2023-08-21T08:44:39;9.02;;;8.27;;
45420;SDS011;55462;47.042;8.292;2023-08-21T08:47:06;10.30;;;8.45;;
45420;SDS011;55462;47.042;8.292;2023-08-21T08:49:31;9.88;;;8.85;;
45420;SDS011;55462;47.042;8.292;2023-08-21T08:51:57;13.65;;;9.20;;
45420;SDS011;55462;47.042;8.292;2023-08-21T08:54:23;9.02;;;8.18;;
45420;SDS011;55462;47.042;8.292;2023-08-21T08:56:50;14.35;;;8.65;;
45420;SDS011;55462;47.042;8.292;2023-08-21T08:59:15;13.35;;;8.55;;
45420;SDS011;55462;47.042;8.292;2023-08-21T09:01:41;10.32;;;8.45;;
45420;SDS011;55462;47.042;8.292;2023-08-21T09:04:06;10.68;;;8.52;;
45420;SDS011;55462;47.042;8.292;2023-08-21T09:06:32;13.07;;;9.02;;
45420;SDS011;55462;47.042;8.292;2023-08-21T09:08:57;10.40;;;9.35;;
45420;SDS011;55462;47.042;8.292;2023-08-21T09:11:23;13.10;;;9.38;;
45420;SDS011;55462;47.042;8.292;2023-08-21T09:13:52;11.98;;;9.10;;
45420;SDS011;55462;47.042;8.292;2023-08-21T09:16:18;13.45;;;9.48;;
45420;SDS011;55462;47.042;8.292;2023-08-21T09:18:48;10.50;;;9.55;;
45420;SDS011;55462;47.042;8.292;2023-08-21T09:21:17;11.38;;;10.10;;
45420;SDS011;55462;47.042;8.292;2023-08-21T09:23:44;13.05;;;10.13;;
45420;SDS011;55462;47.042;8.292;2023-08-21T09:26:10;9.70;;;8.77;;
45420;SDS011;55462;47.042;8.292;2023-08-21T09:28:36;9.40;;;8.43;;
45420;SDS011;55462;47.042;8.292;2023-08-21T09:31:02;12.77;;;9.20;;
45420;SDS011;55462;47.042;8.292;2023-08-21T09:33:28;10.02;;;9.13;;
45420;SDS011;55462;47.042;8.292;2023-08-21T09:35:54;11.25;;;10.15;;
45420;SDS011;55462;47.042;8.292;2023-08-21T09:38:19;13.43;;;9.90;;
45420;SDS011;55462;47.042;8.292;2023-08-21T09:40:52;12.20;;;10.73;;
45420;SDS011;55462;47.042;8.292;2023-08-21T09:43:18;10.98;;;9.43;;
45420;SDS011;55462;47.042;8.292;2023-08-21T09:45:45;10.48;;;9.48;;
45420;SDS011;55462;47.042;8.292;2023-08-21T09:48:12;10.50;;;9.43;;
45420;SDS011;55462;47.042;8.292;2023-08-21T09:50:38;10.25;;;9.30;;
45420;SDS011;55462;47.042;8.292;2023-08-21T09:53:05;11.25;;;10.00;;
45420;SDS011;55462;47.042;8.292;2023-08-21T09:55:31;14.05;;;9.48;;
45420;SDS011;55462;47.042;8.292;2023-08-21T09:57:58;10.18;;;9.20;;
45420;SDS011;55462;47.042;8.292;2023-08-21T10:00:26;16.75;;;9.23;;
45420;SDS011;55462;47.042;8.292;2023-08-21T10:02:54;12.38;;;8.73;;
45420;SDS011;55462;47.042;8.292;2023-08-21T10:05:20;10.95;;;9.80;;
45420;SDS011;55462;47.042;8.292;2023-08-21T10:07:48;11.57;;;9.82;;
45420;SDS011;55462;47.042;8.292;2023-08-21T10:10:15;14.32;;;9.95;;
45420;SDS011;55462;47.042;8.292;2023-08-21T10:12:41;13.95;;;9.93;;
45420;SDS011;55462;47.042;8.292;2023-08-21T10:15:06;11.07;;;9.93;;
45420;SDS011;55462;47.042;8.292;2023-08-21T10:17:33;10.70;;;9.77;;
45420;SDS011;55462;47.042;8.292;2023-08-21T10:20:02;12.75;;;9.32;;
45420;SDS011;55462;47.042;8.292;2023-08-21T10:22:48;14.27;;;9.57;;
45420;SDS011;55462;47.042;8.292;2023-08-21T10:25:21;12.98;;;10.30;;
45420;SDS011;55462;47.042;8.292;2023-08-21T10:27:58;14.55;;;10.30;;
45420;SDS011;55462;47.042;8.292;2023-08-21T10:30:26;14.15;;;8.88;;
45420;SDS011;55462;47.042;8.292;2023-08-21T10:32:53;12.50;;;9.55;;
45420;SDS011;55462;47.042;8.292;2023-08-21T10:35:24;12.98;;;10.10;;
45420;SDS011;55462;47.042;8.292;2023-08-21T10:40:31;10.45;;;9.50;;
45420;SDS011;55462;47.042;8.292;2023-08-21T10:42:57;10.98;;;9.55;;
45420;SDS011;55462;47.042;8.292;2023-08-21T10:45:23;10.65;;;9.57;;
45420;SDS011;55462;47.042;8.292;2023-08-21T10:47:48;10.20;;;9.32;;
45420;SDS011;55462;47.042;8.292;2023-08-21T10:50:15;10.32;;;9.30;;
45420;SDS011;55462;47.042;8.292;2023-08-21T10:52:41;11.43;;;9.30;;
45420;SDS011;55462;47.042;8.292;2023-08-21T10:55:10;14.48;;;10.10;;
45420;SDS011;55462;47.042;8.292;2023-08-21T10:57:43;11.40;;;10.23;;
45420;SDS011;55462;47.042;8.292;2023-08-21T11:00:11;10.82;;;9.38;;
45420;SDS011;55462;47.042;8.292;2023-08-21T11:02:39;11.20;;;9.55;;
45420;SDS011;55462;47.042;8.292;2023-08-21T11:05:08;10.38;;;9.23;;
45420;SDS011;55462;47.042;8.292;2023-08-21T11:07:38;13.23;;;9.45;;
45420;SDS011;55462;47.042;8.292;2023-08-21T11:10:06;13.88;;;9.00;;
45420;SDS011;55462;47.042;8.292;2023-08-21T11:12:32;16.08;;;10.45;;
45420;SDS011;55462;47.042;8.292;2023-08-21T11:14:57;16.20;;;10.07;;
45420;SDS011;55462;47.042;8.292;2023-08-21T11:17:23;11.65;;;10.18;;
45420;SDS011;55462;47.042;8.292;2023-08-21T11:19:48;12.90;;;8.82;;
45420;SDS011;55462;47.042;8.292;2023-08-21T11:22:15;11.43;;;9.32;;
45420;SDS011;55462;47.042;8.292;2023-08-21T11:24:41;10.55;;;9.40;;
45420;SDS011;55462;47.042;8.292;2023-08-21T11:27:08;10.43;;;9.50;;
45420;SDS011;55462;47.042;8.292;2023-08-21T11:29:48;10.90;;;9.43;;
45420;SDS011;55462;47.042;8.292;2023-08-21T11:32:15;13.25;;;9.68;;
45420;SDS011;55462;47.042;8.292;2023-08-21T11:34:51;11.73;;;9.50;;
45420;SDS011;55462;47.042;8.292;2023-08-21T11:37:18;12.32;;;9.65;;
45420;SDS011;55462;47.042;8.292;2023-08-21T11:39:45;10.30;;;9.25;;
45420;SDS011;55462;47.042;8.292;2023-08-21T11:42:11;12.25;;;9.40;;
45420;SDS011;55462;47.042;8.292;2023-08-21T11:44:51;17.45;;;9.02;;
45420;SDS011;55462;47.042;8.292;2023-08-21T11:47:21;11.90;;;9.77;;
45420;SDS011;55462;47.042;8.292;2023-08-21T11:49:47;9.45;;;8.63;;
45420;SDS011;55462;47.042;8.292;2023-08-21T11:52:14;10.82;;;9.00;;
45420;SDS011;55462;47.042;8.292;2023-08-21T11:54:43;12.50;;;9.60;;
45420;SDS011;55462;47.042;8.292;2023-08-21T11:57:13;13.93;;;9.40;;
45420;SDS011;55462;47.042;8.292;2023-08-21T11:59:39;10.57;;;9.45;;
45420;SDS011;55462;47.042;8.292;2023-08-21T12:02:08;11.18;;;10.13;;
45420;SDS011;55462;47.042;8.292;2023-08-21T12:04:35;12.98;;;9.27;;
45420;SDS011;55462;47.042;8.292;2023-08-21T12:07:00;9.73;;;9.05;;
45420;SDS011;55462;47.042;8.292;2023-08-21T12:09:25;9.75;;;8.48;;
45420;SDS011;55462;47.042;8.292;2023-08-21T12:11:51;11.32;;;9.38;;
45420;SDS011;55462;47.042;8.292;2023-08-21T12:14:17;10.60;;;9.60;;
45420;SDS011;55462;47.042;8.292;2023-08-21T12:16:42;14.48;;;9.45;;
45420;SDS011;55462;47.042;8.292;2023-08-21T12:19:07;10.75;;;8.57;;
45420;SDS011;55462;47.042;8.292;2023-08-21T12:21:34;10.77;;;9.63;;
45420;SDS011;55462;47.042;8.292;2023-08-21T12:24:02;10.68;;;9.07;;
45420;SDS011;55462;47.042;8.292;2023-08-21T12:26:28;12.02;;;9.02;;
45420;SDS011;55462;47.042;8.292;2023-08-21T12:28:54;9.85;;;8.82;;
45420;SDS011;55462;47.042;8.292;2023-08-21T12:31:19;11.30;;;9.07;;
45420;SDS011;55462;47.042;8.292;2023-08-21T12:33:44;9.82;;;8.98;;
45420;SDS011;55462;47.042;8.292;2023-08-21T12:36:09;13.35;;;9.00;;
45420;SDS011;55462;47.042;8.292;2023-08-21T12:38:35;11.70;;;8.73;;
45420;SDS011;55462;47.042;8.292;2023-08-21T12:41:03;10.43;;;9.50;;
45420;SDS011;55462;47.042;8.292;2023-08-21T12:43:29;10.38;;;8.60;;
45420;SDS011;55462;47.042;8.292;2023-08-21T12:45:55;11.73;;;9.00;;
45420;SDS011;55462;47.042;8.292;2023-08-21T12:48:20;13.13;;;8.70;;
45420;SDS011;55462;47.042;8.292;2023-08-21T12:50:46;12.38;;;9.30;;
45420;SDS011;55462;47.042;8.292;2023-08-21T12:53:11;9.95;;;9.05;;
45420;SDS011;55462;47.042;8.292;2023-08-21T12:55:37;10.70;;;9.60;;
45420;SDS011;55462;47.042;8.292;2023-08-21T12:58:02;10.57;;;9.13;;
45420;SDS011;55462;47.042;8.292;2023-08-21T13:00:27;9.55;;;8.52;;
45420;SDS011;55462;47.042;8.292;2023-08-21T13:02:53;12.40;;;9.02;;
45420;SDS011;55462;47.042;8.292;2023-08-21T13:05:18;10.90;;;9.45;;
45420;SDS011;55462;47.042;8.292;2023-08-21T13:07:43;10.02;;;9.10;;
45420;SDS011;55462;47.042;8.292;2023-08-21T13:10:09;9.27;;;8.38;;
45420;SDS011;55462;47.042;8.292;2023-08-21T13:12:35;9.40;;;8.50;;
45420;SDS011;55462;47.042;8.292;2023-08-21T13:15:01;10.13;;;8.88;;
45420;SDS011;55462;47.042;8.292;2023-08-21T13:17:27;10.05;;;9.05;;
45420;SDS011;55462;47.042;8.292;2023-08-21T13:19:52;13.32;;;8.63;;
45420;SDS011;55462;47.042;8.292;2023-08-21T13:22:17;9.32;;;8.50;;
45420;SDS011;55462;47.042;8.292;2023-08-21T13:24:43;11.30;;;8.27;;
45420;SDS011;55462;47.042;8.292;2023-08-21T13:27:09;13.77;;;9.18;;
45420;SDS011;55462;47.042;8.292;2023-08-21T13:29:34;9.73;;;8.85;;
45420;SDS011;55462;47.042;8.292;2023-08-21T13:31:59;9.57;;;8.68;;
45420;SDS011;55462;47.042;8.292;2023-08-21T13:34:25;11.70;;;9.10;;
45420;SDS011;55462;47.042;8.292;2023-08-21T13:36:50;9.40;;;8.68;;
45420;SDS011;55462;47.042;8.292;2023-08-21T13:39:16;10.40;;;8.48;;
45420;SDS011;55462;47.042;8.292;2023-08-21T13:41:41;9.43;;;8.63;;
45420;SDS011;55462;47.042;8.292;2023-08-21T13:44:06;11.02;;;8.90;;
45420;SDS011;55462;47.042;8.292;2023-08-21T13:46:33;8.80;;;8.07;;
45420;SDS011;55462;47.042;8.292;2023-08-21T13:48:59;14.15;;;8.45;;
45420;SDS011;55462;47.042;8.292;2023-08-21T13:51:24;10.18;;;8.40;;
45420;SDS011;55462;47.042;8.292;2023-08-21T13:53:50;9.05;;;8.15;;
45420;SDS011;55462;47.042;8.292;2023-08-21T13:56:15;9.90;;;7.97;;
45420;SDS011;55462;47.042;8.292;2023-08-21T13:58:41;9.27;;;8.00;;
45420;SDS011;55462;47.042;8.292;2023-08-21T14:01:06;9.63;;;8.68;;
45420;SDS011;55462;47.042;8.292;2023-08-21T14:03:33;13.43;;;9.20;;
45420;SDS011;55462;47.042;8.292;2023-08-21T14:05:58;9.20;;;8.05;;
45420;SDS011;55462;47.042;8.292;2023-08-21T14:08:23;11.98;;;7.53;;
45420;SDS011;55462;47.042;8.292;2023-08-21T14:10:48;8.57;;;7.68;;
45420;SDS011;55462;47.042;8.292;2023-08-21T14:13:14;10.02;;;7.72;;
45420;SDS011;55462;47.042;8.292;2023-08-21T14:15:39;12.50;;;8.10;;
45420;SDS011;55462;47.042;8.292;2023-08-21T14:18:04;9.75;;;8.07;;
45420;SDS011;55462;47.042;8.292;2023-08-21T14:20:30;9.00;;;8.02;;
45420;SDS011;55462;47.042;8.292;2023-08-21T14:22:55;8.43;;;7.72;;
45420;SDS011;55462;47.042;8.292;2023-08-21T14:25:20;11.65;;;8.23;;
45420;SDS011;55462;47.042;8.292;2023-08-21T14:27:47;11.43;;;8.05;;
45420;SDS011;55462;47.042;8.292;2023-08-21T14:30:13;9.50;;;7.63;;
45420;SDS011;55462;47.042;8.292;2023-08-21T14:32:39;9.80;;;7.60;;
45420;SDS011;55462;47.042;8.292;2023-08-21T14:35:04;10.65;;;8.07;;
45420;SDS011;55462;47.042;8.292;2023-08-21T14:37:33;8.25;;;7.60;;